METAR Data
IDs: Format: Raw Decoded Include TAF

Data at: 1333 UTC 19 Feb 2020

METAR for:KCAG (Craig-Moffat Arpt, CO, US)
Text:KCAG 191253Z AUTO 36003KT 10SM CLR M19/M22 A3018 RMK AO2 SLP326 T11941222
Temperature:-19.4°C ( -3°F)
Dewpoint:-22.2°C ( -8°F) [RH = 78%]
Pressure (altimeter):30.18 inches Hg (1022.1 mb) [Sea level pressure: 1032.6 mb]
Winds:from the N (360 degrees) at 3 MPH (3 knots; 1.5 m/s)
Visibility:10 or more sm (16+ km)
Ceiling:at least 12,000 feet AGL
Clouds:sky clear below 12,000 feet AGL
QC Flag:automated observation with no human augmentation